sensor_id;sensor_type;location;lat;lon;timestamp;P1;durP1;ratioP1;P2;durP2;ratioP2
77828;SDS011;67019;51.034;3.728;2023-05-29T00:01:10;21.87;;;8.73;;
77828;SDS011;67019;51.034;3.728;2023-05-29T00:03:37;25.52;;;10.10;;
77828;SDS011;67019;51.034;3.728;2023-05-29T00:06:07;19.03;;;8.50;;
77828;SDS011;67019;51.034;3.728;2023-05-29T00:08:36;24.20;;;8.03;;
77828;SDS011;67019;51.034;3.728;2023-05-29T00:11:03;15.18;;;8.23;;
77828;SDS011;67019;51.034;3.728;2023-05-29T00:13:31;15.68;;;7.70;;
77828;SDS011;67019;51.034;3.728;2023-05-29T00:15:59;18.75;;;8.20;;
77828;SDS011;67019;51.034;3.728;2023-05-29T00:18:27;15.20;;;7.90;;
77828;SDS011;67019;51.034;3.728;2023-05-29T00:20:54;21.87;;;7.75;;
77828;SDS011;67019;51.034;3.728;2023-05-29T00:23:22;18.35;;;8.35;;
77828;SDS011;67019;51.034;3.728;2023-05-29T00:25:49;13.93;;;7.30;;
77828;SDS011;67019;51.034;3.728;2023-05-29T00:28:17;12.55;;;7.20;;
77828;SDS011;67019;51.034;3.728;2023-05-29T00:30:45;12.98;;;7.35;;
77828;SDS011;67019;51.034;3.728;2023-05-29T00:33:12;17.65;;;8.55;;
77828;SDS011;67019;51.034;3.728;2023-05-29T00:35:40;16.87;;;7.28;;
77828;SDS011;67019;51.034;3.728;2023-05-29T00:38:07;18.20;;;7.42;;
77828;SDS011;67019;51.034;3.728;2023-05-29T00:40:35;13.95;;;8.15;;
77828;SDS011;67019;51.034;3.728;2023-05-29T00:43:02;15.05;;;7.45;;
77828;SDS011;67019;51.034;3.728;2023-05-29T00:45:30;19.73;;;7.58;;
77828;SDS011;67019;51.034;3.728;2023-05-29T00:47:59;15.50;;;7.55;;
77828;SDS011;67019;51.034;3.728;2023-05-29T00:50:27;15.20;;;7.83;;
77828;SDS011;67019;51.034;3.728;2023-05-29T00:52:55;13.78;;;7.25;;
77828;SDS011;67019;51.034;3.728;2023-05-29T00:55:23;16.30;;;6.50;;
77828;SDS011;67019;51.034;3.728;2023-05-29T00:57:51;18.52;;;5.97;;
77828;SDS011;67019;51.034;3.728;2023-05-29T01:00:19;21.55;;;6.67;;
77828;SDS011;67019;51.034;3.728;2023-05-29T01:02:47;15.15;;;6.20;;
77828;SDS011;67019;51.034;3.728;2023-05-29T01:05:15;12.80;;;5.40;;
77828;SDS011;67019;51.034;3.728;2023-05-29T01:07:44;12.50;;;4.97;;
77828;SDS011;67019;51.034;3.728;2023-05-29T01:10:12;13.35;;;5.83;;
77828;SDS011;67019;51.034;3.728;2023-05-29T01:12:44;13.18;;;4.97;;
77828;SDS011;67019;51.034;3.728;2023-05-29T01:15:18;10.82;;;4.37;;
77828;SDS011;67019;51.034;3.728;2023-05-29T01:26:22;8.73;;;2.90;;
77828;SDS011;67019;51.034;3.728;2023-05-29T01:29:10;15.88;;;3.72;;
77828;SDS011;67019;51.034;3.728;2023-05-29T01:31:39;14.38;;;4.72;;
77828;SDS011;67019;51.034;3.728;2023-05-29T01:34:08;14.63;;;3.55;;
77828;SDS011;67019;51.034;3.728;2023-05-29T01:36:36;18.77;;;3.87;;
77828;SDS011;67019;51.034;3.728;2023-05-29T01:39:04;18.70;;;3.55;;
77828;SDS011;67019;51.034;3.728;2023-05-29T01:41:33;15.88;;;4.40;;
77828;SDS011;67019;51.034;3.728;2023-05-29T01:44:03;13.38;;;3.85;;
77828;SDS011;67019;51.034;3.728;2023-05-29T01:46:34;13.95;;;3.62;;
77828;SDS011;67019;51.034;3.728;2023-05-29T01:49:06;8.90;;;2.85;;
77828;SDS011;67019;51.034;3.728;2023-05-29T01:51:34;11.40;;;3.85;;
77828;SDS011;67019;51.034;3.728;2023-05-29T01:54:02;16.65;;;3.83;;
77828;SDS011;67019;51.034;3.728;2023-05-29T01:56:31;15.93;;;3.45;;
77828;SDS011;67019;51.034;3.728;2023-05-29T01:59:00;14.53;;;3.75;;
77828;SDS011;67019;51.034;3.728;2023-05-29T02:01:29;7.60;;;2.60;;
77828;SDS011;67019;51.034;3.728;2023-05-29T02:03:57;14.58;;;3.58;;
77828;SDS011;67019;51.034;3.728;2023-05-29T02:06:25;7.75;;;3.42;;
77828;SDS011;67019;51.034;3.728;2023-05-29T02:08:52;18.10;;;5.90;;
77828;SDS011;67019;51.034;3.728;2023-05-29T02:11:20;18.60;;;3.83;;
77828;SDS011;67019;51.034;3.728;2023-05-29T02:13:47;20.40;;;3.80;;
77828;SDS011;67019;51.034;3.728;2023-05-29T02:16:15;8.18;;;2.95;;
77828;SDS011;67019;51.034;3.728;2023-05-29T02:18:43;11.88;;;3.52;;
77828;SDS011;67019;51.034;3.728;2023-05-29T02:21:11;10.25;;;2.83;;
77828;SDS011;67019;51.034;3.728;2023-05-29T02:23:39;12.20;;;3.15;;
77828;SDS011;67019;51.034;3.728;2023-05-29T02:26:07;9.13;;;3.02;;
77828;SDS011;67019;51.034;3.728;2023-05-29T02:28:34;11.28;;;3.70;;
77828;SDS011;67019;51.034;3.728;2023-05-29T02:31:02;8.15;;;2.87;;
77828;SDS011;67019;51.034;3.728;2023-05-29T02:33:30;15.00;;;3.70;;
77828;SDS011;67019;51.034;3.728;2023-05-29T02:35:57;12.07;;;2.85;;
77828;SDS011;67019;51.034;3.728;2023-05-29T02:38:25;16.85;;;3.52;;
77828;SDS011;67019;51.034;3.728;2023-05-29T02:40:52;11.48;;;3.15;;
77828;SDS011;67019;51.034;3.728;2023-05-29T02:43:22;14.55;;;3.60;;
77828;SDS011;67019;51.034;3.728;2023-05-29T02:45:50;18.25;;;3.50;;
77828;SDS011;67019;51.034;3.728;2023-05-29T02:48:18;14.38;;;3.50;;
77828;SDS011;67019;51.034;3.728;2023-05-29T02:50:47;12.35;;;3.47;;
77828;SDS011;67019;51.034;3.728;2023-05-29T02:53:15;17.15;;;3.00;;
77828;SDS011;67019;51.034;3.728;2023-05-29T02:55:44;13.68;;;3.12;;
77828;SDS011;67019;51.034;3.728;2023-05-29T02:58:12;12.73;;;3.17;;
77828;SDS011;67019;51.034;3.728;2023-05-29T03:00:42;19.87;;;3.90;;
77828;SDS011;67019;51.034;3.728;2023-05-29T03:03:09;7.40;;;2.87;;
77828;SDS011;67019;51.034;3.728;2023-05-29T03:05:37;12.15;;;3.52;;
77828;SDS011;67019;51.034;3.728;2023-05-29T03:08:04;15.23;;;4.05;;
77828;SDS011;67019;51.034;3.728;2023-05-29T03:10:40;16.65;;;3.95;;
77828;SDS011;67019;51.034;3.728;2023-05-29T03:13:04;14.25;;;3.05;;
77828;SDS011;67019;51.034;3.728;2023-05-29T03:15:32;8.70;;;3.17;;
77828;SDS011;67019;51.034;3.728;2023-05-29T03:18:00;10.53;;;3.52;;
77828;SDS011;67019;51.034;3.728;2023-05-29T03:20:27;13.28;;;3.27;;
77828;SDS011;67019;51.034;3.728;2023-05-29T03:22:55;14.05;;;4.30;;
77828;SDS011;67019;51.034;3.728;2023-05-29T03:25:23;14.20;;;4.22;;
77828;SDS011;67019;51.034;3.728;2023-05-29T03:27:50;19.00;;;2.98;;
77828;SDS011;67019;51.034;3.728;2023-05-29T03:30:18;11.88;;;3.67;;
77828;SDS011;67019;51.034;3.728;2023-05-29T03:32:46;10.72;;;3.27;;
77828;SDS011;67019;51.034;3.728;2023-05-29T03:35:13;10.00;;;3.05;;
77828;SDS011;67019;51.034;3.728;2023-05-29T03:37:41;8.40;;;3.98;;
77828;SDS011;67019;51.034;3.728;2023-05-29T03:40:09;9.90;;;2.80;;
77828;SDS011;67019;51.034;3.728;2023-05-29T03:42:37;19.82;;;4.00;;
77828;SDS011;67019;51.034;3.728;2023-05-29T03:45:05;14.95;;;2.95;;
77828;SDS011;67019;51.034;3.728;2023-05-29T03:47:33;15.68;;;3.42;;
77828;SDS011;67019;51.034;3.728;2023-05-29T03:50:02;17.80;;;3.40;;
77828;SDS011;67019;51.034;3.728;2023-05-29T03:52:32;11.65;;;3.83;;
77828;SDS011;67019;51.034;3.728;2023-05-29T03:54:59;14.13;;;3.20;;
77828;SDS011;67019;51.034;3.728;2023-05-29T03:57:29;14.70;;;4.37;;
77828;SDS011;67019;51.034;3.728;2023-05-29T03:59:56;21.68;;;4.12;;
77828;SDS011;67019;51.034;3.728;2023-05-29T04:02:24;13.58;;;3.15;;
77828;SDS011;67019;51.034;3.728;2023-05-29T04:04:52;20.25;;;4.00;;
77828;SDS011;67019;51.034;3.728;2023-05-29T04:07:19;16.70;;;3.05;;
77828;SDS011;67019;51.034;3.728;2023-05-29T04:09:47;19.80;;;3.83;;
77828;SDS011;67019;51.034;3.728;2023-05-29T04:12:15;13.58;;;4.28;;
77828;SDS011;67019;51.034;3.728;2023-05-29T04:14:42;24.25;;;3.87;;
77828;SDS011;67019;51.034;3.728;2023-05-29T04:17:10;11.85;;;3.17;;
77828;SDS011;67019;51.034;3.728;2023-05-29T04:19:37;21.70;;;4.05;;
77828;SDS011;67019;51.034;3.728;2023-05-29T04:22:05;15.30;;;3.17;;
77828;SDS011;67019;51.034;3.728;2023-05-29T04:24:33;14.25;;;2.80;;
77828;SDS011;67019;51.034;3.728;2023-05-29T04:27:01;19.10;;;3.10;;
77828;SDS011;67019;51.034;3.728;2023-05-29T04:29:30;16.15;;;4.67;;
77828;SDS011;67019;51.034;3.728;2023-05-29T04:31:59;14.78;;;3.58;;
77828;SDS011;67019;51.034;3.728;2023-05-29T04:34:29;14.28;;;2.75;;
77828;SDS011;67019;51.034;3.728;2023-05-29T04:36:57;21.17;;;4.08;;
77828;SDS011;67019;51.034;3.728;2023-05-29T04:39:24;21.70;;;4.62;;
77828;SDS011;67019;51.034;3.728;2023-05-29T04:41:52;18.52;;;4.28;;
77828;SDS011;67019;51.034;3.728;2023-05-29T04:44:22;8.08;;;2.95;;
77828;SDS011;67019;51.034;3.728;2023-05-29T04:49:19;19.77;;;3.33;;
77828;SDS011;67019;51.034;3.728;2023-05-29T04:51:48;16.48;;;2.90;;
77828;SDS011;67019;51.034;3.728;2023-05-29T04:54:17;17.50;;;3.22;;
77828;SDS011;67019;51.034;3.728;2023-05-29T04:56:45;14.28;;;2.70;;
77828;SDS011;67019;51.034;3.728;2023-05-29T04:59:13;21.00;;;4.03;;
77828;SDS011;67019;51.034;3.728;2023-05-29T05:01:42;15.58;;;3.83;;
77828;SDS011;67019;51.034;3.728;2023-05-29T05:04:10;18.40;;;4.60;;
77828;SDS011;67019;51.034;3.728;2023-05-29T05:06:37;14.83;;;3.90;;
77828;SDS011;67019;51.034;3.728;2023-05-29T05:09:06;13.43;;;4.33;;
77828;SDS011;67019;51.034;3.728;2023-05-29T05:11:34;16.80;;;4.05;;
77828;SDS011;67019;51.034;3.728;2023-05-29T05:14:03;15.13;;;3.12;;
77828;SDS011;67019;51.034;3.728;2023-05-29T05:16:32;15.20;;;3.95;;
77828;SDS011;67019;51.034;3.728;2023-05-29T05:19:03;23.42;;;3.45;;
77828;SDS011;67019;51.034;3.728;2023-05-29T05:21:31;24.85;;;4.00;;
77828;SDS011;67019;51.034;3.728;2023-05-29T05:23:59;10.60;;;2.80;;
77828;SDS011;67019;51.034;3.728;2023-05-29T05:26:27;18.95;;;3.17;;
77828;SDS011;67019;51.034;3.728;2023-05-29T05:28:54;15.20;;;2.70;;
77828;SDS011;67019;51.034;3.728;2023-05-29T05:31:22;13.40;;;3.37;;
77828;SDS011;67019;51.034;3.728;2023-05-29T05:33:51;16.32;;;3.08;;
77828;SDS011;67019;51.034;3.728;2023-05-29T05:36:18;16.82;;;3.20;;
77828;SDS011;67019;51.034;3.728;2023-05-29T05:38:47;17.00;;;3.47;;
77828;SDS011;67019;51.034;3.728;2023-05-29T05:41:14;16.37;;;3.12;;
77828;SDS011;67019;51.034;3.728;2023-05-29T05:43:42;15.63;;;3.72;;
77828;SDS011;67019;51.034;3.728;2023-05-29T05:46:09;18.45;;;4.08;;
77828;SDS011;67019;51.034;3.728;2023-05-29T05:48:37;13.15;;;3.27;;
77828;SDS011;67019;51.034;3.728;2023-05-29T05:51:06;7.17;;;2.42;;
77828;SDS011;67019;51.034;3.728;2023-05-29T05:53:34;16.40;;;4.62;;
77828;SDS011;67019;51.034;3.728;2023-05-29T05:56:01;21.55;;;4.58;;
77828;SDS011;67019;51.034;3.728;2023-05-29T05:58:29;12.20;;;2.67;;
77828;SDS011;67019;51.034;3.728;2023-05-29T06:00:56;10.18;;;2.92;;
77828;SDS011;67019;51.034;3.728;2023-05-29T06:03:25;14.63;;;2.85;;
77828;SDS011;67019;51.034;3.728;2023-05-29T06:05:53;17.95;;;3.37;;
77828;SDS011;67019;51.034;3.728;2023-05-29T06:08:21;11.90;;;3.45;;
77828;SDS011;67019;51.034;3.728;2023-05-29T06:10:48;15.93;;;3.02;;
77828;SDS011;67019;51.034;3.728;2023-05-29T06:13:17;17.50;;;3.30;;
77828;SDS011;67019;51.034;3.728;2023-05-29T06:15:44;12.93;;;2.52;;
77828;SDS011;67019;51.034;3.728;2023-05-29T06:18:12;13.53;;;3.80;;
77828;SDS011;67019;51.034;3.728;2023-05-29T06:20:40;17.37;;;3.15;;
77828;SDS011;67019;51.034;3.728;2023-05-29T06:23:07;20.62;;;4.05;;
77828;SDS011;67019;51.034;3.728;2023-05-29T06:25:35;13.53;;;2.80;;
77828;SDS011;67019;51.034;3.728;2023-05-29T06:28:03;17.95;;;3.02;;
77828;SDS011;67019;51.034;3.728;2023-05-29T06:30:33;15.65;;;3.50;;
77828;SDS011;67019;51.034;3.728;2023-05-29T06:33:03;22.82;;;5.78;;
77828;SDS011;67019;51.034;3.728;2023-05-29T06:35:30;15.98;;;3.27;;
77828;SDS011;67019;51.034;3.728;2023-05-29T06:37:58;12.07;;;3.80;;
77828;SDS011;67019;51.034;3.728;2023-05-29T06:40:26;24.80;;;4.92;;
77828;SDS011;67019;51.034;3.728;2023-05-29T06:42:54;13.88;;;3.08;;
77828;SDS011;67019;51.034;3.728;2023-05-29T06:45:21;13.08;;;2.65;;
77828;SDS011;67019;51.034;3.728;2023-05-29T06:47:49;16.27;;;3.60;;
77828;SDS011;67019;51.034;3.728;2023-05-29T06:50:17;15.43;;;2.60;;
77828;SDS011;67019;51.034;3.728;2023-05-29T06:52:44;17.32;;;3.20;;
77828;SDS011;67019;51.034;3.728;2023-05-29T06:55:12;14.10;;;3.55;;
77828;SDS011;67019;51.034;3.728;2023-05-29T06:57:39;7.65;;;2.15;;
77828;SDS011;67019;51.034;3.728;2023-05-29T07:00:07;16.62;;;3.52;;
77828;SDS011;67019;51.034;3.728;2023-05-29T07:02:44;13.13;;;2.55;;
77828;SDS011;67019;51.034;3.728;2023-05-29T07:05:08;14.10;;;2.40;;
77828;SDS011;67019;51.034;3.728;2023-05-29T07:07:36;18.57;;;4.12;;
77828;SDS011;67019;51.034;3.728;2023-05-29T07:10:04;13.45;;;2.80;;
77828;SDS011;67019;51.034;3.728;2023-05-29T07:12:32;17.70;;;3.50;;
77828;SDS011;67019;51.034;3.728;2023-05-29T07:14:59;13.03;;;2.52;;
77828;SDS011;67019;51.034;3.728;2023-05-29T07:17:27;21.87;;;2.95;;
77828;SDS011;67019;51.034;3.728;2023-05-29T07:19:54;10.93;;;2.47;;
77828;SDS011;67019;51.034;3.728;2023-05-29T07:22:22;14.18;;;2.87;;
77828;SDS011;67019;51.034;3.728;2023-05-29T07:24:50;15.00;;;2.85;;
77828;SDS011;67019;51.034;3.728;2023-05-29T07:27:18;12.98;;;3.10;;
77828;SDS011;67019;51.034;3.728;2023-05-29T07:29:45;14.15;;;3.05;;
77828;SDS011;67019;51.034;3.728;2023-05-29T07:32:13;12.37;;;3.30;;
77828;SDS011;67019;51.034;3.728;2023-05-29T07:34:40;11.20;;;3.55;;
77828;SDS011;67019;51.034;3.728;2023-05-29T07:37:08;14.90;;;2.85;;
77828;SDS011;67019;51.034;3.728;2023-05-29T07:39:37;8.90;;;2.17;;
77828;SDS011;67019;51.034;3.728;2023-05-29T07:42:05;12.98;;;2.52;;
77828;SDS011;67019;51.034;3.728;2023-05-29T07:44:33;14.03;;;3.33;;
77828;SDS011;67019;51.034;3.728;2023-05-29T07:47:01;10.50;;;2.60;;
77828;SDS011;67019;51.034;3.728;2023-05-29T07:49:29;14.53;;;2.67;;
77828;SDS011;67019;51.034;3.728;2023-05-29T07:51:58;10.18;;;3.42;;
77828;SDS011;67019;51.034;3.728;2023-05-29T07:54:25;10.18;;;3.20;;
77828;SDS011;67019;51.034;3.728;2023-05-29T07:56:53;8.23;;;2.02;;
77828;SDS011;67019;51.034;3.728;2023-05-29T07:59:21;19.30;;;2.87;;
77828;SDS011;67019;51.034;3.728;2023-05-29T08:01:49;11.90;;;2.15;;
77828;SDS011;67019;51.034;3.728;2023-05-29T08:04:17;19.57;;;3.87;;
77828;SDS011;67019;51.034;3.728;2023-05-29T08:06:44;14.15;;;2.95;;
77828;SDS011;67019;51.034;3.728;2023-05-29T08:09:12;17.42;;;6.05;;
77828;SDS011;67019;51.034;3.728;2023-05-29T08:11:41;15.78;;;3.87;;
77828;SDS011;67019;51.034;3.728;2023-05-29T08:14:11;9.08;;;2.65;;
77828;SDS011;67019;51.034;3.728;2023-05-29T08:16:40;12.90;;;2.87;;
77828;SDS011;67019;51.034;3.728;2023-05-29T08:19:08;12.95;;;3.00;;
77828;SDS011;67019;51.034;3.728;2023-05-29T08:21:38;7.00;;;2.55;;
77828;SDS011;67019;51.034;3.728;2023-05-29T08:24:05;10.88;;;3.65;;
77828;SDS011;67019;51.034;3.728;2023-05-29T08:26:33;9.35;;;2.45;;
77828;SDS011;67019;51.034;3.728;2023-05-29T08:29:02;10.38;;;2.60;;
77828;SDS011;67019;51.034;3.728;2023-05-29T08:31:30;13.10;;;2.87;;
77828;SDS011;67019;51.034;3.728;2023-05-29T08:33:58;15.60;;;3.62;;
77828;SDS011;67019;51.034;3.728;2023-05-29T08:36:25;14.80;;;2.67;;
77828;SDS011;67019;51.034;3.728;2023-05-29T08:38:54;14.80;;;3.37;;
77828;SDS011;67019;51.034;3.728;2023-05-29T08:41:24;17.62;;;3.08;;
77828;SDS011;67019;51.034;3.728;2023-05-29T08:43:58;14.55;;;2.95;;
77828;SDS011;67019;51.034;3.728;2023-05-29T08:46:30;14.07;;;3.15;;
77828;SDS011;67019;51.034;3.728;2023-05-29T08:48:58;13.55;;;3.42;;
77828;SDS011;67019;51.034;3.728;2023-05-29T08:51:30;17.55;;;3.25;;
77828;SDS011;67019;51.034;3.728;2023-05-29T08:53:58;10.58;;;2.87;;
77828;SDS011;67019;51.034;3.728;2023-05-29T08:56:26;14.07;;;3.30;;
77828;SDS011;67019;51.034;3.728;2023-05-29T08:58:54;13.18;;;2.95;;
77828;SDS011;67019;51.034;3.728;2023-05-29T09:01:24;10.53;;;2.20;;
77828;SDS011;67019;51.034;3.728;2023-05-29T09:03:53;7.10;;;2.35;;
77828;SDS011;67019;51.034;3.728;2023-05-29T09:06:21;17.30;;;3.12;;
77828;SDS011;67019;51.034;3.728;2023-05-29T09:08:51;13.98;;;2.92;;
77828;SDS011;67019;51.034;3.728;2023-05-29T09:11:19;13.60;;;2.90;;
77828;SDS011;67019;51.034;3.728;2023-05-29T09:13:47;10.25;;;3.20;;
77828;SDS011;67019;51.034;3.728;2023-05-29T09:16:18;14.13;;;3.00;;
77828;SDS011;67019;51.034;3.728;2023-05-29T09:18:46;8.88;;;2.62;;
77828;SDS011;67019;51.034;3.728;2023-05-29T09:21:27;11.28;;;2.75;;
77828;SDS011;67019;51.034;3.728;2023-05-29T09:24:02;10.03;;;2.60;;
77828;SDS011;67019;51.034;3.728;2023-05-29T09:26:31;14.18;;;4.50;;
77828;SDS011;67019;51.034;3.728;2023-05-29T09:29:00;11.35;;;3.98;;
77828;SDS011;67019;51.034;3.728;2023-05-29T09:31:30;20.27;;;4.62;;
77828;SDS011;67019;51.034;3.728;2023-05-29T09:33:59;9.30;;;2.75;;
77828;SDS011;67019;51.034;3.728;2023-05-29T09:36:29;14.05;;;2.77;;
77828;SDS011;67019;51.034;3.728;2023-05-29T09:39:01;13.43;;;2.83;;
77828;SDS011;67019;51.034;3.728;2023-05-29T09:41:29;23.80;;;3.60;;
77828;SDS011;67019;51.034;3.728;2023-05-29T09:43:59;11.55;;;2.37;;
77828;SDS011;67019;51.034;3.728;2023-05-29T09:46:26;13.08;;;3.40;;
77828;SDS011;67019;51.034;3.728;2023-05-29T09:48:54;9.28;;;2.87;;
77828;SDS011;67019;51.034;3.728;2023-05-29T09:53:52;13.70;;;3.95;;
77828;SDS011;67019;51.034;3.728;2023-05-29T09:56:22;14.83;;;3.80;;
77828;SDS011;67019;51.034;3.728;2023-05-29T09:58:52;13.20;;;3.40;;
77828;SDS011;67019;51.034;3.728;2023-05-29T10:01:22;18.25;;;2.87;;
77828;SDS011;67019;51.034;3.728;2023-05-29T10:03:50;16.62;;;3.10;;
77828;SDS011;67019;51.034;3.728;2023-05-29T10:06:18;16.25;;;2.72;;
77828;SDS011;67019;51.034;3.728;2023-05-29T10:08:49;13.88;;;2.62;;
77828;SDS011;67019;51.034;3.728;2023-05-29T10:11:20;14.20;;;2.70;;
77828;SDS011;67019;51.034;3.728;2023-05-29T10:13:54;14.25;;;3.58;;
77828;SDS011;67019;51.034;3.728;2023-05-29T10:16:25;10.80;;;2.35;;
77828;SDS011;67019;51.034;3.728;2023-05-29T10:18:54;36.15;;;5.12;;
77828;SDS011;67019;51.034;3.728;2023-05-29T10:21:26;14.95;;;3.60;;
77828;SDS011;67019;51.034;3.728;2023-05-29T10:23:54;20.75;;;4.03;;
77828;SDS011;67019;51.034;3.728;2023-05-29T10:26:24;7.83;;;3.13;;
77828;SDS011;67019;51.034;3.728;2023-05-29T10:32:07;15.00;;;3.80;;
77828;SDS011;67019;51.034;3.728;2023-05-29T10:34:50;13.35;;;3.45;;
77828;SDS011;67019;51.034;3.728;2023-05-29T10:40:23;14.18;;;3.42;;
77828;SDS011;67019;51.034;3.728;2023-05-29T10:42:52;8.65;;;2.90;;
77828;SDS011;67019;51.034;3.728;2023-05-29T10:50:45;12.25;;;2.75;;
77828;SDS011;67019;51.034;3.728;2023-05-29T10:53:17;11.18;;;2.92;;
77828;SDS011;67019;51.034;3.728;2023-05-29T10:55:48;11.53;;;2.37;;
77828;SDS011;67019;51.034;3.728;2023-05-29T11:00:52;10.30;;;3.17;;
77828;SDS011;67019;51.034;3.728;2023-05-29T11:03:24;14.47;;;3.20;;
77828;SDS011;67019;51.034;3.728;2023-05-29T11:05:58;10.05;;;2.72;;
77828;SDS011;67019;51.034;3.728;2023-05-29T11:08:34;10.95;;;2.85;;
77828;SDS011;67019;51.034;3.728;2023-05-29T11:11:13;19.52;;;3.77;;
77828;SDS011;67019;51.034;3.728;2023-05-29T11:16:54;14.45;;;2.52;;
77828;SDS011;67019;51.034;3.728;2023-05-29T11:18:47;18.90;;;3.92;;
77828;SDS011;67019;51.034;3.728;2023-05-29T11:24:02;8.50;;;3.60;;
77828;SDS011;67019;51.034;3.728;2023-05-29T11:26:33;17.20;;;4.28;;
77828;SDS011;67019;51.034;3.728;2023-05-29T11:29:05;6.87;;;2.20;;
77828;SDS011;67019;51.034;3.728;2023-05-29T11:31:35;17.98;;;3.42;;
77828;SDS011;67019;51.034;3.728;2023-05-29T11:34:03;12.25;;;2.90;;
77828;SDS011;67019;51.034;3.728;2023-05-29T11:36:32;13.10;;;4.33;;
77828;SDS011;67019;51.034;3.728;2023-05-29T11:39:00;11.35;;;3.30;;
77828;SDS011;67019;51.034;3.728;2023-05-29T11:41:29;17.17;;;2.80;;
77828;SDS011;67019;51.034;3.728;2023-05-29T11:43:57;11.35;;;2.90;;
77828;SDS011;67019;51.034;3.728;2023-05-29T11:46:28;12.18;;;3.15;;
77828;SDS011;67019;51.034;3.728;2023-05-29T11:48:58;7.70;;;2.70;;
77828;SDS011;67019;51.034;3.728;2023-05-29T11:51:26;12.18;;;2.85;;
77828;SDS011;67019;51.034;3.728;2023-05-29T11:53:54;10.72;;;3.22;;
77828;SDS011;67019;51.034;3.728;2023-05-29T11:56:26;12.35;;;3.08;;
77828;SDS011;67019;51.034;3.728;2023-05-29T11:58:54;12.70;;;3.83;;
77828;SDS011;67019;51.034;3.728;2023-05-29T12:01:25;8.90;;;2.95;;
77828;SDS011;67019;51.034;3.728;2023-05-29T12:03:57;18.90;;;3.22;;
77828;SDS011;67019;51.034;3.728;2023-05-29T12:06:35;11.75;;;2.98;;
77828;SDS011;67019;51.034;3.728;2023-05-29T12:09:01;15.75;;;2.67;;
77828;SDS011;67019;51.034;3.728;2023-05-29T12:11:30;8.85;;;3.15;;
77828;SDS011;67019;51.034;3.728;2023-05-29T12:14:00;15.95;;;2.72;;
77828;SDS011;67019;51.034;3.728;2023-05-29T12:16:28;12.63;;;2.90;;
77828;SDS011;67019;51.034;3.728;2023-05-29T12:18:59;13.95;;;2.83;;
77828;SDS011;67019;51.034;3.728;2023-05-29T12:21:27;14.83;;;3.35;;
77828;SDS011;67019;51.034;3.728;2023-05-29T12:23:55;10.45;;;2.98;;
77828;SDS011;67019;51.034;3.728;2023-05-29T12:26:23;7.12;;;2.70;;
77828;SDS011;67019;51.034;3.728;2023-05-29T12:28:51;8.38;;;2.65;;
77828;SDS011;67019;51.034;3.728;2023-05-29T12:31:26;7.83;;;2.67;;
77828;SDS011;67019;51.034;3.728;2023-05-29T12:34:33;13.00;;;2.95;;
77828;SDS011;67019;51.034;3.728;2023-05-29T12:36:41;10.95;;;3.58;;
77828;SDS011;67019;51.034;3.728;2023-05-29T12:39:12;11.12;;;3.00;;
77828;SDS011;67019;51.034;3.728;2023-05-29T12:41:42;14.07;;;3.42;;
77828;SDS011;67019;51.034;3.728;2023-05-29T12:44:09;13.28;;;2.55;;
77828;SDS011;67019;51.034;3.728;2023-05-29T12:46:41;12.50;;;3.20;;
77828;SDS011;67019;51.034;3.728;2023-05-29T12:49:12;14.80;;;2.75;;
77828;SDS011;67019;51.034;3.728;2023-05-29T12:51:41;10.23;;;2.75;;
77828;SDS011;67019;51.034;3.728;2023-05-29T12:54:10;9.05;;;3.62;;
77828;SDS011;67019;51.034;3.728;2023-05-29T12:56:38;10.25;;;2.65;;
77828;SDS011;67019;51.034;3.728;2023-05-29T12:59:07;11.53;;;3.58;;
77828;SDS011;67019;51.034;3.728;2023-05-29T13:01:36;12.13;;;2.95;;
77828;SDS011;67019;51.034;3.728;2023-05-29T13:04:05;7.67;;;2.47;;
77828;SDS011;67019;51.034;3.728;2023-05-29T13:06:33;10.63;;;2.40;;
77828;SDS011;67019;51.034;3.728;2023-05-29T13:09:02;8.05;;;2.95;;
77828;SDS011;67019;51.034;3.728;2023-05-29T13:11:31;3.98;;;2.10;;
77828;SDS011;67019;51.034;3.728;2023-05-29T13:14:00;9.40;;;2.90;;
77828;SDS011;67019;51.034;3.728;2023-05-29T13:16:29;12.90;;;2.77;;
77828;SDS011;67019;51.034;3.728;2023-05-29T13:18:56;12.37;;;2.40;;
77828;SDS011;67019;51.034;3.728;2023-05-29T13:21:24;18.17;;;2.62;;
77828;SDS011;67019;51.034;3.728;2023-05-29T13:23:51;8.70;;;2.75;;
77828;SDS011;67019;51.034;3.728;2023-05-29T13:26:20;11.18;;;2.50;;
77828;SDS011;67019;51.034;3.728;2023-05-29T13:28:47;9.73;;;2.15;;
77828;SDS011;67019;51.034;3.728;2023-05-29T13:31:15;6.70;;;2.60;;
77828;SDS011;67019;51.034;3.728;2023-05-29T13:33:43;10.08;;;2.25;;
77828;SDS011;67019;51.034;3.728;2023-05-29T13:36:12;6.92;;;2.40;;
77828;SDS011;67019;51.034;3.728;2023-05-29T13:38:40;9.60;;;2.40;;
77828;SDS011;67019;51.034;3.728;2023-05-29T13:41:07;8.05;;;2.20;;
77828;SDS011;67019;51.034;3.728;2023-05-29T13:43:36;4.83;;;2.15;;
77828;SDS011;67019;51.034;3.728;2023-05-29T13:46:04;7.28;;;2.10;;
77828;SDS011;67019;51.034;3.728;2023-05-29T13:48:31;6.90;;;1.77;;
77828;SDS011;67019;51.034;3.728;2023-05-29T13:51:00;7.72;;;2.42;;
77828;SDS011;67019;51.034;3.728;2023-05-29T13:53:28;10.15;;;2.00;;
77828;SDS011;67019;51.034;3.728;2023-05-29T13:55:55;8.35;;;2.47;;
77828;SDS011;67019;51.034;3.728;2023-05-29T13:58:23;3.67;;;1.62;;
77828;SDS011;67019;51.034;3.728;2023-05-29T14:00:51;7.00;;;1.80;;
77828;SDS011;67019;51.034;3.728;2023-05-29T14:03:18;7.10;;;1.98;;
77828;SDS011;67019;51.034;3.728;2023-05-29T14:05:47;4.78;;;1.57;;
77828;SDS011;67019;51.034;3.728;2023-05-29T14:08:15;5.60;;;2.02;;
77828;SDS011;67019;51.034;3.728;2023-05-29T14:10:44;7.97;;;2.05;;
77828;SDS011;67019;51.034;3.728;2023-05-29T14:13:13;8.18;;;2.20;;
77828;SDS011;67019;51.034;3.728;2023-05-29T14:15:48;9.13;;;3.10;;
77828;SDS011;67019;51.034;3.728;2023-05-29T14:18:14;15.10;;;2.62;;
77828;SDS011;67019;51.034;3.728;2023-05-29T14:20:42;13.22;;;2.70;;
77828;SDS011;67019;51.034;3.728;2023-05-29T14:23:11;8.40;;;3.33;;
77828;SDS011;67019;51.034;3.728;2023-05-29T14:25:41;10.45;;;2.85;;
77828;SDS011;67019;51.034;3.728;2023-05-29T14:28:09;6.05;;;2.35;;
77828;SDS011;67019;51.034;3.728;2023-05-29T14:30:37;7.75;;;2.58;;
77828;SDS011;67019;51.034;3.728;2023-05-29T14:33:04;20.05;;;2.75;;
77828;SDS011;67019;51.034;3.728;2023-05-29T14:35:32;8.18;;;2.67;;
77828;SDS011;67019;51.034;3.728;2023-05-29T14:37:59;11.05;;;2.70;;
77828;SDS011;67019;51.034;3.728;2023-05-29T14:40:27;9.88;;;3.12;;
77828;SDS011;67019;51.034;3.728;2023-05-29T14:42:56;13.75;;;2.47;;
77828;SDS011;67019;51.034;3.728;2023-05-29T14:45:24;9.25;;;2.83;;
77828;SDS011;67019;51.034;3.728;2023-05-29T14:47:51;13.58;;;3.58;;
77828;SDS011;67019;51.034;3.728;2023-05-29T14:50:19;10.93;;;2.58;;
77828;SDS011;67019;51.034;3.728;2023-05-29T14:52:47;8.20;;;3.20;;
77828;SDS011;67019;51.034;3.728;2023-05-29T14:55:14;8.68;;;3.08;;
77828;SDS011;67019;51.034;3.728;2023-05-29T14:57:42;8.70;;;2.92;;
77828;SDS011;67019;51.034;3.728;2023-05-29T15:00:09;16.87;;;3.72;;
77828;SDS011;67019;51.034;3.728;2023-05-29T15:02:37;16.90;;;2.77;;
77828;SDS011;67019;51.034;3.728;2023-05-29T15:07:35;12.73;;;3.40;;
77828;SDS011;67019;51.034;3.728;2023-05-29T15:10:03;11.97;;;2.92;;
77828;SDS011;67019;51.034;3.728;2023-05-29T15:12:34;14.17;;;3.30;;
77828;SDS011;67019;51.034;3.728;2023-05-29T15:15:02;10.80;;;2.65;;
77828;SDS011;67019;51.034;3.728;2023-05-29T15:17:32;15.13;;;2.95;;
77828;SDS011;67019;51.034;3.728;2023-05-29T15:20:00;10.40;;;3.08;;